Time;durP1;ratioP1;P1;durP2;ratioP2;P2;SDS_P1;SDS_P2;PMS_P1;PMS_P2;Temp;Humidity;BMP_temperature;BMP_pressure;BME280_temperature;BME280_humidity;BME280_pressure;Samples;Min_cycle;Max_cycle;Signal;HPM_P1;HPM_P2
2022/12/30 00:00:14;;;;;;;11.88;2.47;;;6.30;99.90;;;;;;5067372;28;20485;-37
2022/12/30 00:02:39;;;;;;;19.10;3.15;;;6.20;99.90;;;;;;5064759;28;20042;-37
2022/12/30 00:05:05;;;;;;;8.40;1.50;;;6.20;99.90;;;;;;5071625;28;20127;-37
2022/12/30 00:07:34;;;;;;;12.55;1.67;;;6.20;99.90;;;;;;5052496;28;20067;-37
2022/12/30 00:10:00;;;;;;;8.32;1.15;;;6.20;99.90;;;;;;5052628;28;20083;-37
2022/12/30 00:34:59;;;;;;;8.55;1.20;;;5.90;99.90;;;;;;5070001;28;19920;-37
2022/12/30 00:37:25;;;;;;;20.30;2.50;;;5.90;99.90;;;;;;5067547;28;20037;-38
2022/12/30 00:39:50;;;;;;;11.70;1.60;;;5.90;99.90;;;;;;5068120;28;20525;-38
2022/12/30 00:45:00;;;;;;;7.40;1.08;;;5.80;99.90;;;;;;5063236;28;20128;-37
2022/12/30 00:47:26;;;;;;;4.70;0.80;;;5.80;99.90;;;;;;5064193;28;20575;-36
2022/12/30 00:58:05;;;;;;;11.80;1.50;;;5.80;99.90;;;;;;5065165;28;22180;-36
2022/12/30 01:00:30;;;;;;;8.95;1.02;;;5.80;99.90;;;;;;5071658;28;20040;-36
2022/12/30 01:02:56;;;;;;;6.55;1.67;;;5.80;99.90;;;;;;5067360;28;20048;-37
2022/12/30 01:05:22;;;;;;;11.07;1.33;;;5.70;99.90;;;;;;5068690;28;20036;-42
2022/12/30 01:07:47;;;;;;;11.00;1.70;;;5.70;99.90;;;;;;5048980;28;20063;-37
2022/12/30 01:10:15;;;;;;;9.32;1.15;;;5.70;99.90;;;;;;5064895;28;20052;-38
2022/12/30 01:12:41;;;;;;;14.85;2.28;;;5.60;99.90;;;;;;5064799;28;20062;-37
2022/12/30 01:15:07;;;;;;;11.25;1.63;;;5.60;99.90;;;;;;5068859;28;20038;-37
2022/12/30 01:17:33;;;;;;;11.45;1.83;;;5.60;99.90;;;;;;5062119;28;20158;-40
2022/12/30 01:19:59;;;;;;;11.35;1.75;;;5.60;99.90;;;;;;5063465;28;20048;-36
2022/12/30 01:22:25;;;;;;;9.15;1.67;;;5.60;99.90;;;;;;5060634;28;20078;-38
2022/12/30 01:24:54;;;;;;;13.32;2.50;;;5.50;99.90;;;;;;5066369;28;20028;-36
2022/12/30 01:27:20;;;;;;;6.85;1.38;;;5.60;99.90;;;;;;5081768;28;20048;-37
2022/12/30 01:29:46;;;;;;;13.32;1.42;;;5.60;99.90;;;;;;5070898;28;20044;-37
2022/12/30 01:32:15;;;;;;;14.30;1.40;;;5.50;99.90;;;;;;5068167;28;20502;-37
2022/12/30 01:34:41;;;;;;;13.68;1.60;;;5.50;99.90;;;;;;5049544;28;20041;-37
2022/12/30 01:37:07;;;;;;;11.15;1.60;;;5.50;99.90;;;;;;5070465;28;20033;-37
2022/12/30 01:39:33;;;;;;;10.82;1.50;;;5.60;99.90;;;;;;5051581;28;20037;-37
2022/12/30 01:41:59;;;;;;;10.45;1.85;;;5.60;99.90;;;;;;5066914;28;20064;-37
2022/12/30 01:44:57;;;;;;;12.95;1.70;;;5.50;99.90;;;;;;5047695;28;20071;-39
2022/12/30 01:47:29;;;;;;;13.55;2.50;;;5.50;99.90;;;;;;5063037;28;20036;-37
2022/12/30 01:50:18;;;;;;;13.93;1.58;;;5.60;99.90;;;;;;5062300;28;20048;-37
2022/12/30 01:53:07;;;;;;;12.20;1.98;;;5.60;99.90;;;;;;5060050;28;20057;-37
2022/12/30 01:55:37;;;;;;;8.05;1.27;;;5.60;99.90;;;;;;5058883;28;20442;-37
2022/12/30 01:58:07;;;;;;;15.57;1.65;;;5.60;99.90;;;;;;5062658;28;20132;-39
2022/12/30 02:00:33;;;;;;;8.43;1.30;;;5.60;99.90;;;;;;5061908;28;20065;-38
2022/12/30 02:02:59;;;;;;;8.60;1.10;;;5.60;99.90;;;;;;5056356;28;20048;-37
2022/12/30 02:05:28;;;;;;;11.43;1.42;;;5.60;99.90;;;;;;5062717;28;20039;-39
2022/12/30 02:08:03;;;;;;;12.98;1.77;;;5.60;99.90;;;;;;5045671;28;20101;-36
2022/12/30 02:10:29;;;;;;;9.45;1.48;;;5.60;99.90;;;;;;5065335;28;20050;-37
2022/12/30 02:12:55;;;;;;;12.30;1.67;;;5.60;99.90;;;;;;5062152;28;20045;-37
2022/12/30 02:15:25;;;;;;;13.38;1.63;;;5.60;99.90;;;;;;5062579;28;20077;-37
2022/12/30 02:18:17;;;;;;;11.38;1.65;;;5.50;99.90;;;;;;5059122;28;20075;-38
2022/12/30 02:21:22;;;;;;;8.93;1.47;;;5.50;99.90;;;;;;5057105;28;20072;-37
2022/12/30 02:24:01;;;;;;;5.75;1.60;;;5.50;99.90;;;;;;5057086;28;20577;-40
2022/12/30 02:26:40;;;;;;;9.10;0.98;;;5.50;99.90;;;;;;5063293;28;20040;-37
2022/12/30 02:29:56;;;;;;;10.65;1.38;;;5.40;99.90;;;;;;5041472;28;20056;-36
2022/12/30 02:32:38;;;;;;;14.38;1.30;;;5.40;99.90;;;;;;4996119;28;20064;-37
2022/12/30 02:35:16;;;;;;;12.98;1.30;;;5.40;99.90;;;;;;5061596;28;20044;-37
2022/12/30 02:38:25;;;;;;;16.63;2.28;;;5.40;99.90;;;;;;5059507;28;20032;-37
2022/12/30 02:47:20;;;;;;;10.75;1.30;;;5.40;99.90;;;;;;5047678;28;20474;-39
2022/12/30 02:52:14;;;;;;;6.22;1.38;;;5.40;99.90;;;;;;5070483;28;20083;-37
2022/12/30 02:52:39;;;;;;;13.95;1.55;;;5.40;99.90;;;;;;5060720;28;20056;-36
2022/12/30 02:55:06;;;;;;;11.48;1.42;;;5.30;99.90;;;;;;5067036;28;20175;-37
2022/12/30 02:57:34;;;;;;;7.10;1.00;;;5.30;99.90;;;;;;5046590;28;20694;-39
2022/12/30 03:06:13;;;;;;;9.15;1.45;;;5.30;99.90;;;;;;5063554;28;20045;-37
2022/12/30 03:08:58;;;;;;;10.48;1.30;;;5.30;99.90;;;;;;5063270;28;20055;-42
2022/12/30 03:11:28;;;;;;;3.78;1.60;;;5.20;99.90;;;;;;5061750;28;20307;-37
2022/12/30 03:14:00;;;;;;;7.35;0.90;;;5.20;99.90;;;;;;5069043;28;20044;-36
2022/12/30 03:16:40;;;;;;;7.78;1.20;;;5.20;99.90;;;;;;5046331;28;20037;-36
2022/12/30 03:19:14;;;;;;;13.40;1.55;;;5.20;99.90;;;;;;5065099;28;20041;-36
2022/12/30 03:21:41;;;;;;;9.43;1.00;;;5.20;99.90;;;;;;5045414;28;20085;-36
2022/12/30 03:27:05;;;;;;;9.30;1.40;;;5.10;99.90;;;;;;5067053;28;20056;-37
2022/12/30 03:29:48;;;;;;;5.35;1.17;;;5.00;99.90;;;;;;5064089;28;20041;-36
2022/12/30 03:32:16;;;;;;;6.60;0.90;;;4.90;99.90;;;;;;5063991;28;20044;-39
2022/12/30 03:34:42;;;;;;;6.88;0.98;;;5.00;99.90;;;;;;5049016;28;20040;-38
2022/12/30 03:37:20;;;;;;;11.88;1.33;;;5.00;99.90;;;;;;5059138;28;20041;-37
2022/12/30 03:40:01;;;;;;;6.90;2.05;;;5.00;99.90;;;;;;5066334;28;20069;-37
2022/12/30 03:42:28;;;;;;;11.32;1.17;;;5.00;99.90;;;;;;5051216;28;20048;-37
2022/12/30 03:44:54;;;;;;;11.52;2.00;;;5.00;99.90;;;;;;5062860;28;20041;-36
2022/12/30 03:47:20;;;;;;;7.45;1.23;;;5.00;99.90;;;;;;5067991;28;20051;-39
2022/12/30 03:49:46;;;;;;;7.20;1.25;;;5.00;99.90;;;;;;5067781;28;20466;-36
2022/12/30 03:52:14;;;;;;;7.80;1.60;;;4.90;99.90;;;;;;5065199;28;20516;-38
2022/12/30 03:54:40;;;;;;;13.20;1.20;;;4.90;99.90;;;;;;5066060;28;20036;-38
2022/12/30 03:57:06;;;;;;;7.18;1.23;;;4.90;99.90;;;;;;5066209;28;20041;-36
2022/12/30 03:59:32;;;;;;;11.48;1.60;;;4.80;99.90;;;;;;5061601;28;20303;-37
2022/12/30 04:01:58;;;;;;;6.85;0.80;;;4.80;99.90;;;;;;5077727;28;20032;-38
2022/12/30 04:04:24;;;;;;;5.85;1.13;;;4.80;99.90;;;;;;5063326;28;20367;-37
2022/12/30 04:06:50;;;;;;;5.15;0.93;;;4.80;99.90;;;;;;5069231;28;20098;-38
2022/12/30 04:09:15;;;;;;;9.80;1.30;;;4.70;99.90;;;;;;5064769;28;20394;-36
2022/12/30 04:11:41;;;;;;;9.55;1.35;;;4.70;99.90;;;;;;5065050;28;20033;-37
2022/12/30 04:14:07;;;;;;;10.90;1.50;;;4.60;99.90;;;;;;5066611;28;20494;-37
2022/12/30 04:16:32;;;;;;;9.18;1.23;;;4.60;99.90;;;;;;5067412;28;21746;-37
2022/12/30 04:18:58;;;;;;;8.20;1.27;;;4.60;99.90;;;;;;5061913;28;20032;-36
2022/12/30 04:21:24;;;;;;;8.93;1.30;;;4.50;99.90;;;;;;5051247;28;20036;-36
2022/12/30 04:23:49;;;;;;;13.40;2.30;;;4.40;99.90;;;;;;5066476;28;20029;-37
2022/12/30 04:26:15;;;;;;;5.35;1.00;;;4.40;99.90;;;;;;5067853;28;20032;-38
2022/12/30 04:28:41;;;;;;;8.70;1.05;;;4.40;99.90;;;;;;5083676;28;21266;-37
2022/12/30 04:31:06;;;;;;;6.03;1.23;;;4.40;99.90;;;;;;5069361;28;20045;-37
2022/12/30 04:33:32;;;;;;;7.47;1.15;;;4.30;99.90;;;;;;5053314;28;20162;-37
2022/12/30 04:35:58;;;;;;;9.15;1.50;;;4.30;99.90;;;;;;5052721;28;20533;-36
2022/12/30 04:38:24;;;;;;;10.93;1.35;;;4.30;99.90;;;;;;5066649;28;20033;-37
2022/12/30 04:40:49;;;;;;;7.57;1.80;;;4.20;99.90;;;;;;5070860;28;20498;-38
2022/12/30 04:43:15;;;;;;;7.75;1.33;;;4.20;99.90;;;;;;5046079;28;20519;-37
2022/12/30 04:45:41;;;;;;;12.77;1.65;;;4.20;99.90;;;;;;5048089;28;20025;-36
2022/12/30 04:48:07;;;;;;;9.60;2.45;;;4.20;99.90;;;;;;5070699;28;20391;-36
2022/12/30 04:50:33;;;;;;;8.68;1.58;;;4.20;99.90;;;;;;5067758;28;20131;-36
2022/12/30 04:52:58;;;;;;;7.88;1.50;;;4.20;99.90;;;;;;5068060;28;20045;-37
2022/12/30 04:55:24;;;;;;;9.20;1.38;;;4.20;99.90;;;;;;5066142;28;20124;-37
2022/12/30 04:57:50;;;;;;;10.25;1.35;;;4.30;99.90;;;;;;5064227;28;20036;-38
2022/12/30 05:00:15;;;;;;;11.18;2.13;;;4.30;99.90;;;;;;5067129;28;20047;-37
2022/12/30 05:02:41;;;;;;;7.20;1.40;;;4.30;99.90;;;;;;5068878;28;20028;-36
2022/12/30 05:05:07;;;;;;;10.65;1.45;;;4.30;99.90;;;;;;5072879;28;20497;-37
2022/12/30 05:07:33;;;;;;;9.35;1.20;;;4.30;99.90;;;;;;5069397;28;20041;-37
2022/12/30 05:09:59;;;;;;;8.25;1.27;;;4.30;99.90;;;;;;5068273;28;20731;-39
2022/12/30 05:12:24;;;;;;;8.15;1.50;;;4.30;99.90;;;;;;5056818;28;20070;-36
2022/12/30 05:14:50;;;;;;;3.92;1.08;;;4.30;99.90;;;;;;5070832;28;20036;-39
2022/12/30 05:17:16;;;;;;;5.07;1.20;;;4.30;99.90;;;;;;5065398;28;20072;-37
2022/12/30 05:19:42;;;;;;;9.93;1.40;;;4.30;99.90;;;;;;5069072;28;20113;-36
2022/12/30 05:22:07;;;;;;;11.13;1.52;;;4.30;99.90;;;;;;5069175;28;20043;-37
2022/12/30 05:27:18;;;;;;;10.15;1.90;;;4.20;99.90;;;;;;5084711;28;20043;-37
2022/12/30 05:29:43;;;;;;;6.13;1.13;;;4.20;99.90;;;;;;5070098;28;20478;-36
2022/12/30 05:32:09;;;;;;;14.98;1.55;;;4.20;99.90;;;;;;5063786;28;20029;-36
2022/12/30 05:34:35;;;;;;;13.13;1.40;;;4.20;99.90;;;;;;5071424;28;20482;-38
2022/12/30 05:37:00;;;;;;;9.07;1.30;;;4.20;99.90;;;;;;5068294;28;20490;-39
2022/12/30 05:39:26;;;;;;;10.07;2.28;;;4.20;99.90;;;;;;5067642;28;20059;-36
2022/12/30 05:41:51;;;;;;;4.95;2.45;;;4.20;99.90;;;;;;5069611;28;20493;-37
2022/12/30 05:44:17;;;;;;;9.90;1.98;;;4.10;99.90;;;;;;5072823;28;20477;-37
2022/12/30 05:46:43;;;;;;;7.97;1.30;;;4.10;99.90;;;;;;5072414;28;20474;-36
2022/12/30 05:49:10;;;;;;;10.70;1.80;;;4.10;99.90;;;;;;5069740;28;20041;-36
2022/12/30 05:51:36;;;;;;;6.53;1.48;;;4.10;99.90;;;;;;5068167;28;20048;-37
2022/12/30 05:54:02;;;;;;;8.00;1.58;;;4.10;99.90;;;;;;5062376;28;20045;-37
2022/12/30 05:56:27;;;;;;;6.03;0.75;;;4.10;99.90;;;;;;5068966;28;20041;-36
2022/12/30 05:58:53;;;;;;;9.52;1.25;;;4.10;99.90;;;;;;5074275;28;20033;-36
2022/12/30 06:01:19;;;;;;;7.35;1.90;;;4.10;99.90;;;;;;5068134;28;20036;-37
2022/12/30 06:03:44;;;;;;;11.68;1.35;;;4.20;99.90;;;;;;5060915;28;20466;-36
2022/12/30 06:06:10;;;;;;;6.90;1.00;;;4.20;99.90;;;;;;5065785;28;20051;-39
2022/12/30 06:08:37;;;;;;;2.08;0.70;;;4.20;99.90;;;;;;5045652;28;20086;-38
2022/12/30 06:11:03;;;;;;;9.98;1.75;;;4.30;99.90;;;;;;5069108;28;20049;-37
2022/12/30 06:13:29;;;;;;;7.25;1.20;;;4.30;99.90;;;;;;5067852;28;20495;-37
2022/12/30 06:15:54;;;;;;;10.82;1.60;;;4.30;99.90;;;;;;5068796;28;20071;-36
2022/12/30 06:18:20;;;;;;;6.78;0.90;;;4.20;99.90;;;;;;5064009;28;20068;-36
2022/12/30 06:20:46;;;;;;;9.10;1.60;;;4.20;99.90;;;;;;5046320;28;20473;-37
2022/12/30 06:23:12;;;;;;;6.93;1.50;;;4.20;99.90;;;;;;5064810;28;20051;-37
2022/12/30 06:25:38;;;;;;;4.50;1.10;;;4.20;99.90;;;;;;5065762;28;20049;-37
2022/12/30 06:28:04;;;;;;;8.90;1.00;;;4.20;99.90;;;;;;5049163;28;20036;-36
2022/12/30 06:30:30;;;;;;;4.93;0.77;;;4.20;99.90;;;;;;5080700;28;20055;-37
2022/12/30 06:32:56;;;;;;;7.55;1.15;;;4.20;99.90;;;;;;5062543;28;20040;-37
2022/12/30 06:35:22;;;;;;;11.38;1.85;;;4.20;99.90;;;;;;5069396;28;20036;-40
2022/12/30 06:37:49;;;;;;;13.15;1.40;;;4.20;99.90;;;;;;5070668;28;20450;-37
2022/12/30 06:40:14;;;;;;;11.15;1.40;;;4.20;99.90;;;;;;5063298;28;20500;-36
2022/12/30 06:42:40;;;;;;;9.65;1.23;;;4.20;99.90;;;;;;5067949;28;20044;-38
2022/12/30 06:45:07;;;;;;;10.23;1.10;;;4.20;99.90;;;;;;5082788;28;20036;-37
2022/12/30 06:47:33;;;;;;;8.52;1.50;;;4.20;99.90;;;;;;5065682;28;20393;-36
2022/12/30 06:49:59;;;;;;;7.75;0.82;;;4.20;99.90;;;;;;5063456;28;20048;-37
2022/12/30 06:52:24;;;;;;;5.93;0.90;;;4.20;99.90;;;;;;5068450;28;20044;-37
2022/12/30 06:54:50;;;;;;;8.02;0.85;;;4.20;99.90;;;;;;5067649;28;20048;-37
2022/12/30 06:57:16;;;;;;;6.57;1.00;;;4.20;99.90;;;;;;5065410;28;20063;-38
2022/12/30 06:59:41;;;;;;;5.60;1.20;;;4.20;99.90;;;;;;5062193;28;20048;-38
2022/12/30 07:02:13;;;;;;;10.77;1.30;;;4.20;99.90;;;;;;5061835;28;20400;-38
2022/12/30 07:04:38;;;;;;;6.45;1.02;;;4.10;99.90;;;;;;5046209;28;20059;-36
2022/12/30 07:07:04;;;;;;;8.82;1.02;;;4.10;99.90;;;;;;5069003;28;20553;-37
2022/12/30 07:09:30;;;;;;;5.80;1.00;;;4.10;99.90;;;;;;5064690;28;20036;-36
2022/12/30 07:11:55;;;;;;;10.32;1.08;;;4.10;99.90;;;;;;5064198;28;20097;-36
2022/12/30 07:14:21;;;;;;;8.73;1.13;;;4.10;99.90;;;;;;5062983;28;20128;-37
2022/12/30 07:16:47;;;;;;;4.85;0.88;;;4.20;99.90;;;;;;5066410;28;20043;-36
2022/12/30 07:19:13;;;;;;;8.65;1.90;;;4.20;99.90;;;;;;5067284;28;20059;-37
2022/12/30 07:21:39;;;;;;;7.75;1.33;;;4.10;99.90;;;;;;5068751;28;20186;-37
2022/12/30 07:24:08;;;;;;;11.63;1.65;;;4.20;99.90;;;;;;5060802;28;20048;-37
2022/12/30 07:26:33;;;;;;;6.85;1.00;;;4.20;99.90;;;;;;5045921;28;20076;-36
2022/12/30 07:28:59;;;;;;;9.88;1.25;;;4.20;99.90;;;;;;5057523;28;20129;-36
2022/12/30 07:31:25;;;;;;;18.85;1.90;;;4.20;99.90;;;;;;5066912;28;20047;-39
2022/12/30 07:33:51;;;;;;;6.55;1.35;;;4.20;99.90;;;;;;5071561;28;20565;-36
2022/12/30 07:36:17;;;;;;;7.38;1.20;;;4.20;99.90;;;;;;5051289;28;20098;-36
2022/12/30 07:38:42;;;;;;;9.90;1.50;;;4.20;99.90;;;;;;5065129;28;20078;-39
2022/12/30 07:41:08;;;;;;;5.80;1.25;;;4.20;99.90;;;;;;5061454;28;20413;-36
2022/12/30 07:43:34;;;;;;;5.22;1.00;;;4.20;99.90;;;;;;5080923;28;20116;-36
2022/12/30 07:46:05;;;;;;;11.70;1.85;;;4.30;99.90;;;;;;5065895;28;20072;-36
2022/12/30 07:48:31;;;;;;;12.85;1.58;;;4.30;99.90;;;;;;5068323;28;20044;-38
2022/12/30 07:50:57;;;;;;;7.72;1.13;;;4.30;99.90;;;;;;5067039;28;20110;-38
2022/12/30 07:53:23;;;;;;;6.72;1.38;;;4.30;99.90;;;;;;5063503;28;20055;-37
2022/12/30 07:55:48;;;;;;;7.57;1.05;;;4.30;99.90;;;;;;5065446;28;20036;-36
2022/12/30 07:58:14;;;;;;;8.27;1.48;;;4.30;99.90;;;;;;5068865;28;20123;-36
2022/12/30 08:00:40;;;;;;;11.18;1.42;;;4.30;99.90;;;;;;5072138;28;20044;-36
2022/12/30 08:03:06;;;;;;;9.50;1.60;;;4.40;99.90;;;;;;5068438;28;20040;-36
2022/12/30 08:05:31;;;;;;;9.63;2.03;;;4.40;99.90;;;;;;5053173;28;20178;-37
2022/12/30 08:07:57;;;;;;;7.47;1.50;;;4.40;99.90;;;;;;5070963;28;20078;-36
2022/12/30 08:10:23;;;;;;;7.28;1.63;;;4.40;99.90;;;;;;5069076;28;20405;-37
2022/12/30 08:12:49;;;;;;;10.32;1.60;;;4.40;99.90;;;;;;5066211;28;20044;-37
2022/12/30 08:15:15;;;;;;;6.90;1.13;;;4.50;99.90;;;;;;5073122;28;20040;-37
2022/12/30 08:17:41;;;;;;;11.15;1.77;;;4.50;99.90;;;;;;5067851;28;20063;-37
2022/12/30 08:20:10;;;;;;;7.97;1.65;;;4.60;99.90;;;;;;5052813;28;20450;-40
2022/12/30 08:22:36;;;;;;;12.98;1.98;;;4.60;99.90;;;;;;5062968;28;20585;-37
2022/12/30 08:25:02;;;;;;;7.75;1.30;;;4.60;99.90;;;;;;5069512;28;20049;-37
2022/12/30 08:27:28;;;;;;;6.88;1.30;;;4.60;99.90;;;;;;5069664;28;20101;-38
2022/12/30 08:29:54;;;;;;;6.38;1.75;;;4.70;99.90;;;;;;5069165;28;20478;-38
2022/12/30 08:32:19;;;;;;;6.47;1.10;;;4.70;99.90;;;;;;5061787;28;21136;-39
2022/12/30 08:34:45;;;;;;;5.57;1.08;;;4.70;99.90;;;;;;5066936;28;20043;-36
2022/12/30 08:37:11;;;;;;;6.75;1.40;;;4.70;99.90;;;;;;5068879;28;20090;-39
2022/12/30 08:39:37;;;;;;;6.57;1.10;;;4.80;99.90;;;;;;5048959;28;20036;-38
2022/12/30 08:42:03;;;;;;;10.48;1.40;;;4.80;99.90;;;;;;5073607;28;20119;-37
2022/12/30 08:44:28;;;;;;;6.80;1.00;;;4.80;99.90;;;;;;5068979;28;20186;-37
2022/12/30 08:46:54;;;;;;;11.45;1.70;;;4.90;99.90;;;;;;5067668;28;20452;-38
2022/12/30 08:49:20;;;;;;;7.55;1.42;;;4.80;99.90;;;;;;5069543;28;20059;-36
2022/12/30 08:51:46;;;;;;;7.07;1.30;;;4.90;99.90;;;;;;5074247;28;20052;-36
2022/12/30 08:54:12;;;;;;;8.95;1.70;;;4.90;99.90;;;;;;5081568;28;20047;-37
2022/12/30 08:56:41;;;;;;;10.85;2.17;;;4.90;99.90;;;;;;5071008;28;20044;-37
2022/12/30 08:59:09;;;;;;;8.15;1.15;;;5.00;99.90;;;;;;5070707;28;20093;-38
2022/12/30 09:01:40;;;;;;;9.95;1.33;;;5.00;99.90;;;;;;5074268;28;20122;-36
2022/12/30 09:04:08;;;;;;;7.60;1.38;;;5.10;99.90;;;;;;5066814;28;20190;-36
2022/12/30 09:06:36;;;;;;;7.38;1.10;;;5.10;99.90;;;;;;5049070;28;20044;-37
2022/12/30 09:09:03;;;;;;;10.00;1.83;;;5.20;99.90;;;;;;5068044;28;20147;-39
2022/12/30 09:11:31;;;;;;;7.22;1.50;;;5.20;99.90;;;;;;5064921;28;20036;-36
2022/12/30 09:13:58;;;;;;;6.70;1.67;;;5.30;99.90;;;;;;5068900;28;20052;-37
2022/12/30 09:16:25;;;;;;;6.85;1.13;;;5.30;99.90;;;;;;5052133;28;20035;-38
2022/12/30 09:18:52;;;;;;;11.60;1.83;;;5.40;99.90;;;;;;5071513;28;20486;-37
2022/12/30 09:21:18;;;;;;;7.22;1.27;;;5.40;99.90;;;;;;5068181;28;20032;-37
2022/12/30 09:23:44;;;;;;;13.20;2.38;;;5.50;99.90;;;;;;5068911;28;20051;-38
2022/12/30 09:26:14;;;;;;;10.10;1.50;;;5.50;99.90;;;;;;5066057;28;20040;-37
2022/12/30 09:28:40;;;;;;;5.43;1.15;;;5.50;99.90;;;;;;5066576;28;20032;-36
2022/12/30 09:31:05;;;;;;;8.02;1.55;;;5.50;99.90;;;;;;5067500;28;20044;-36
2022/12/30 09:33:32;;;;;;;6.10;1.40;;;5.60;99.90;;;;;;5070401;28;20033;-37
2022/12/30 09:35:58;;;;;;;12.40;1.77;;;5.60;99.90;;;;;;5064235;28;20043;-36
2022/12/30 09:38:23;;;;;;;8.70;1.25;;;5.70;99.90;;;;;;5074185;28;20037;-37
2022/12/30 09:40:52;;;;;;;5.82;1.70;;;5.70;99.90;;;;;;5067561;28;20029;-37
2022/12/30 09:43:41;;;;;;;6.13;1.38;;;5.80;99.90;;;;;;5060055;28;20036;-36
2022/12/30 09:46:31;;;;;;;7.60;1.77;;;5.80;99.90;;;;;;5055825;28;20682;-37
2022/12/30 09:49:25;;;;;;;6.32;2.05;;;5.80;99.90;;;;;;5054615;28;20079;-37
2022/12/30 09:52:09;;;;;;;5.97;2.00;;;5.80;99.90;;;;;;5067865;28;20098;-37
2022/12/30 09:54:39;;;;;;;8.07;1.63;;;5.90;99.90;;;;;;5065695;28;20150;-36
2022/12/30 10:00:21;;;;;;;5.82;0.95;;;5.90;99.90;;;;;;5027560;28;20057;-37
2022/12/30 10:03:06;;;;;;;8.77;1.05;;;6.00;99.90;;;;;;5060227;28;20529;-37
2022/12/30 10:05:40;;;;;;;4.57;0.95;;;6.00;99.90;;;;;;5060308;28;20163;-38
2022/12/30 10:08:24;;;;;;;7.30;1.85;;;6.10;99.90;;;;;;5061759;28;20072;-36
2022/12/30 10:11:04;;;;;;;6.40;1.48;;;6.10;99.90;;;;;;5061843;28;20037;-38
2022/12/30 10:13:30;;;;;;;8.63;1.15;;;6.20;99.90;;;;;;5062600;28;20036;-37
2022/12/30 10:16:04;;;;;;;5.78;0.63;;;6.30;99.90;;;;;;5064565;28;20036;-36
2022/12/30 10:19:10;;;;;;;6.50;1.40;;;6.30;99.90;;;;;;5067131;28;20032;-37
2022/12/30 10:21:42;;;;;;;3.53;1.05;;;6.40;99.90;;;;;;5065602;28;20107;-36
2022/12/30 10:24:24;;;;;;;5.13;0.85;;;6.50;99.90;;;;;;5067549;28;20562;-38
2022/12/30 10:26:50;;;;;;;2.90;1.05;;;6.50;99.90;;;;;;5045261;28;20497;-39
2022/12/30 10:29:21;;;;;;;4.75;0.73;;;6.50;99.90;;;;;;5066316;28;20048;-37
2022/12/30 10:31:49;;;;;;;3.92;0.75;;;6.60;99.90;;;;;;5063796;28;20052;-37
2022/12/30 10:34:17;;;;;;;4.20;0.82;;;6.60;99.90;;;;;;5056345;28;20051;-36
2022/12/30 10:36:51;;;;;;;2.78;0.70;;;6.60;99.90;;;;;;5041345;28;20114;-37
2022/12/30 10:39:23;;;;;;;10.07;1.50;;;6.60;99.90;;;;;;5062043;28;20037;-37
2022/12/30 10:41:52;;;;;;;4.88;0.70;;;6.60;99.90;;;;;;5061312;28;20040;-37
2022/12/30 10:44:29;;;;;;;4.75;0.95;;;6.70;99.90;;;;;;5062015;28;20052;-40
2022/12/30 10:47:06;;;;;;;5.88;1.08;;;6.70;99.90;;;;;;5062542;28;20037;-37
2022/12/30 10:50:00;;;;;;;4.75;0.95;;;6.70;99.90;;;;;;5062296;28;20572;-37
2022/12/30 10:52:27;;;;;;;3.53;0.63;;;6.70;99.90;;;;;;5058908;28;20506;-43
2022/12/30 10:54:52;;;;;;;4.60;0.90;;;6.70;99.90;;;;;;5064858;28;20513;-37
2022/12/30 10:57:22;;;;;;;4.20;0.68;;;6.70;99.90;;;;;;5065923;28;20067;-37
2022/12/30 10:59:48;;;;;;;3.75;0.93;;;6.70;99.90;;;;;;5060349;28;20041;-39
2022/12/30 11:02:24;;;;;;;9.45;0.73;;;6.70;99.90;;;;;;5062445;28;21211;-37
2022/12/30 11:04:50;;;;;;;4.75;0.70;;;6.70;99.90;;;;;;5059798;28;20047;-38
2022/12/30 11:07:17;;;;;;;5.60;0.80;;;6.70;99.90;;;;;;5073168;28;20494;-37
2022/12/30 11:09:45;;;;;;;4.90;0.80;;;6.70;99.90;;;;;;5055999;28;20045;-38
2022/12/30 11:15:18;;;;;;;7.82;0.80;;;6.80;99.90;;;;;;5067752;28;20048;-38
2022/12/30 11:17:50;;;;;;;6.35;1.10;;;6.80;99.90;;;;;;5065007;28;20037;-36
2022/12/30 11:20:15;;;;;;;4.90;0.75;;;6.80;99.90;;;;;;5048409;28;20041;-37
2022/12/30 11:22:53;;;;;;;1.75;0.40;;;6.80;99.90;;;;;;5064650;28;20481;-37
2022/12/30 11:25:29;;;;;;;3.03;0.70;;;6.90;99.90;;;;;;5062499;28;20049;-38
2022/12/30 11:27:57;;;;;;;2.97;0.63;;;6.90;99.90;;;;;;5065045;28;20056;-36
2022/12/30 11:30:34;;;;;;;2.25;0.77;;;6.90;99.90;;;;;;5066961;28;20143;-39
2022/12/30 11:33:03;;;;;;;2.72;0.77;;;7.00;99.90;;;;;;5072404;28;20045;-38
2022/12/30 11:35:42;;;;;;;5.35;1.52;;;7.00;99.90;;;;;;5070934;28;20041;-37
2022/12/30 11:38:27;;;;;;;5.00;0.80;;;7.00;99.90;;;;;;5077503;28;20036;-37
2022/12/30 11:40:53;;;;;;;2.85;0.82;;;7.10;99.90;;;;;;5070000;28;20619;-37
2022/12/30 11:43:20;;;;;;;3.85;0.50;;;7.10;99.90;;;;;;5067804;28;20051;-37
2022/12/30 11:46:04;;;;;;;8.10;1.17;;;7.20;99.90;;;;;;5054607;28;20048;-38
2022/12/30 11:48:31;;;;;;;5.63;0.88;;;7.20;99.90;;;;;;5069222;28;20397;-39
2022/12/30 11:50:58;;;;;;;2.80;0.52;;;7.20;99.90;;;;;;5067809;28;20616;-36
2022/12/30 11:53:33;;;;;;;1.63;0.30;;;7.30;99.90;;;;;;5088810;28;20051;-37
2022/12/30 11:55:59;;;;;;;3.50;0.60;;;7.30;99.90;;;;;;5070194;28;20044;-37
2022/12/30 11:58:26;;;;;;;4.13;1.02;;;7.40;99.90;;;;;;5068730;28;20029;-37
2022/12/30 12:01:04;;;;;;;4.20;0.70;;;7.40;99.90;;;;;;5077891;28;20495;-38
2022/12/30 12:03:30;;;;;;;2.88;0.40;;;7.50;99.90;;;;;;5066479;28;20101;-37
2022/12/30 12:06:05;;;;;;;1.88;0.40;;;7.50;99.90;;;;;;5071138;28;20242;-37
2022/12/30 12:08:36;;;;;;;2.85;0.50;;;7.60;99.90;;;;;;5066536;28;20048;-38
2022/12/30 12:11:07;;;;;;;4.45;0.30;;;7.60;99.90;;;;;;5071627;28;20063;-39
2022/12/30 12:13:32;;;;;;;6.18;1.45;;;7.60;99.90;;;;;;5067043;28;20032;-37
2022/12/30 12:15:59;;;;;;;4.57;0.93;;;7.60;99.90;;;;;;5074782;28;20254;-37
2022/12/30 12:18:37;;;;;;;1.92;0.50;;;7.70;99.90;;;;;;5059891;28;20037;-37
2022/12/30 12:21:24;;;;;;;4.65;0.82;;;7.70;99.90;;;;;;5052256;28;20036;-37
2022/12/30 12:23:55;;;;;;;3.50;0.40;;;7.80;99.90;;;;;;5064676;28;20080;-36
2022/12/30 12:26:42;;;;;;;5.13;0.70;;;7.80;99.90;;;;;;5065249;28;20047;-35
2022/12/30 12:29:13;;;;;;;2.80;0.82;;;7.80;99.90;;;;;;5062284;28;20044;-36
2022/12/30 12:31:58;;;;;;;3.10;0.52;;;7.80;99.90;;;;;;5060954;28;20552;-37
2022/12/30 12:34:56;;;;;;;3.05;0.73;;;7.90;99.90;;;;;;5065274;28;20547;-38
2022/12/30 12:38:00;;;;;;;2.80;0.88;;;7.90;99.90;;;;;;5064393;28;20436;-36
2022/12/30 12:40:35;;;;;;;;;;;8.00;99.90;;;;;;5055220;28;20033;-37
2022/12/30 12:43:18;;;;;;;3.63;0.65;;;8.00;99.90;;;;;;5060126;28;19924;-36
2022/12/30 12:45:47;;;;;;;7.40;0.73;;;8.00;99.90;;;;;;5061990;28;20391;-37
2022/12/30 12:48:31;;;;;;;2.33;0.47;;;8.10;99.90;;;;;;5064491;28;20040;-37
2022/12/30 12:51:21;;;;;;;4.15;0.50;;;8.10;99.90;;;;;;5062304;28;20102;-38
2022/12/30 12:54:20;;;;;;;3.45;0.30;;;8.20;99.90;;;;;;5065305;28;20086;-37
2022/12/30 12:57:10;;;;;;;5.47;0.50;;;8.20;99.90;;;;;;5032646;28;20534;-38
2022/12/30 12:59:39;;;;;;;2.95;0.30;;;8.20;99.90;;;;;;5065109;28;20107;-37
2022/12/30 13:02:25;;;;;;;5.15;0.63;;;8.20;99.90;;;;;;5060045;28;20047;-37
2022/12/30 13:05:15;;;;;;;7.22;1.10;;;8.30;99.90;;;;;;5064484;28;20126;-37
2022/12/30 13:08:05;;;;;;;3.38;0.40;;;8.30;99.90;;;;;;5040771;28;20506;-38
2022/12/30 13:10:47;;;;;;;4.88;0.50;;;8.30;99.90;;;;;;5065620;28;20194;-36
2022/12/30 13:13:29;;;;;;;1.23;0.30;;;8.40;99.90;;;;;;5060628;28;20102;-38
2022/12/30 13:16:16;;;;;;;5.38;0.80;;;8.40;99.90;;;;;;5061846;28;20044;-38
2022/12/30 13:18:45;;;;;;;5.15;0.40;;;8.50;99.90;;;;;;5067017;28;20039;-38
2022/12/30 13:21:20;;;;;;;2.17;0.50;;;8.50;99.90;;;;;;5068246;28;20392;-37
2022/12/30 13:23:50;;;;;;;4.25;0.70;;;8.60;99.90;;;;;;5059722;28;20040;-36
2022/12/30 13:26:19;;;;;;;3.83;0.45;;;8.60;99.90;;;;;;5069097;28;20056;-36
2022/12/30 13:28:52;;;;;;;3.58;0.90;;;8.60;99.90;;;;;;5063964;28;20040;-39
2022/12/30 13:31:41;;;;;;;3.88;0.57;;;8.60;99.90;;;;;;5085624;28;20403;-36
2022/12/30 13:34:28;;;;;;;2.35;0.40;;;8.70;99.90;;;;;;5063150;28;20402;-37
2022/12/30 13:37:22;;;;;;;3.55;0.57;;;8.70;99.90;;;;;;5062269;28;20098;-37
2022/12/30 13:40:11;;;;;;;4.03;0.82;;;8.80;99.90;;;;;;5037410;28;20044;-36
2022/12/30 13:43:12;;;;;;;5.70;0.40;;;8.80;99.90;;;;;;5057828;28;20041;-37
2022/12/30 13:45:44;;;;;;;4.57;0.40;;;8.80;99.90;;;;;;5037895;28;20060;-36
2022/12/30 13:48:09;;;;;;;2.70;0.55;;;8.80;99.90;;;;;;5055907;28;20468;-38
2022/12/30 13:50:37;;;;;;;6.70;0.75;;;8.80;99.90;;;;;;5065755;28;20053;-37
2022/12/30 13:53:04;;;;;;;5.43;0.43;;;8.80;99.90;;;;;;5069921;28;20048;-38
2022/12/30 13:55:32;;;;;;;1.38;0.38;;;8.70;99.90;;;;;;5062644;28;20507;-37
2022/12/30 13:58:05;;;;;;;3.08;0.40;;;8.70;99.90;;;;;;5067370;28;20043;-35
2022/12/30 14:00:32;;;;;;;;;;;8.70;99.90;;;;;;5061849;28;20498;-37
2022/12/30 14:03:04;;;;;;;2.55;0.40;;;8.70;99.90;;;;;;5057508;28;19924;-37
2022/12/30 14:05:39;;;;;;;6.10;0.47;;;8.60;99.90;;;;;;5067690;28;20051;-37
2022/12/30 14:08:26;;;;;;;7.30;0.60;;;8.60;99.90;;;;;;5065881;28;20090;-37
2022/12/30 14:11:01;;;;;;;6.78;0.63;;;8.60;99.90;;;;;;5044615;28;20036;-37